Flight Track Log - Related Links

Times and Time Zones

All times are in EDT time to prevent confusion due to time zone crossing. See the ASQ5941 flight status page for this flight to view local times or setup timezone preferences in your user account.

Time Position Orientation Groundspeed Altitude Reporting Facility
EDT Latitude Longitude Course Direction KTS MPH feet Rate Location/Type
Mon 05:18:44 PM 41.4650 -75.6986 334° Northwest 251 289 5,600  Level New York Center
Mon 05:19:00 PM 41.4390 -75.9614 304° West  Level FlightAware Approximate
Mon 05:19:42 PM 41.5119 -75.7714 311° West 256 295 7,800  Level New York Center
Mon 05:20:00 PM 41.4929 -76.0516 315° West  Level FlightAware Approximate
Mon 05:20:43 PM 41.5694 -75.8422 317° Northwest 251 289 10,000  Level New York Center
Mon 05:21:00 PM 41.5521 -76.1365 312° West  Level FlightAware Approximate
Mon 05:21:44 PM 41.6028 -75.9364 295° West 267 307 11,000  Level New York Center
Mon 05:22:00 PM 41.6076 -76.2257 307° West  Level FlightAware Approximate
Mon 05:22:42 PM 41.6336 -76.0386 292° West 308 354 11,600  Level New York Center
Mon 05:23:00 PM 41.6602 -76.3183 307° West  Level FlightAware Approximate
Mon 05:23:42 PM 41.6714 -76.1722 291° West 346 398 12,900  Level New York Center
Mon 05:24:44 PM 41.7033 -76.2914 290° West 352 405 14,100 1,122 Climbing New York Center
Mon 05:25:45 PM 41.7372 -76.4108 291° West 352 405 15,200 1,068 Climbing New York Center
Mon 05:26:42 PM 41.7694 -76.5222 291° West 352 405 16,200 1,025 Climbing New York Center
Mon 05:28:23 PM 41.8267 -76.7289 290° West 357 411 17,900 894 Climbing Cleveland Center
Mon 05:29:23 PM 41.8619 -76.8525 291° West 357 411 18,600 800 Climbing Cleveland Center
Mon 05:30:23 PM 41.8975 -76.9842 290° West 363 418 19,500 950 Climbing Cleveland Center
Mon 05:31:23 PM 41.9325 -77.1136 290° West 363 418 20,500 950 Climbing Cleveland Center
Mon 05:32:23 PM 41.9678 -77.2428 290° West 368 423 21,400 950 Climbing Cleveland Center
Mon 05:33:23 PM 42.0050 -77.3750 291° West 368 423 22,400 950 Climbing Cleveland Center
Mon 05:34:23 PM 42.0378 -77.5106 288° West 373 429 23,300 900 Climbing Cleveland Center
Mon 05:35:23 PM 42.0747 -77.6431 291° West 378 435 24,200 950 Climbing Cleveland Center
Mon 05:36:23 PM 42.1092 -77.7786 289° West 378 435 25,200 950 Climbing Cleveland Center
Mon 05:37:23 PM 42.1436 -77.9144 289° West 378 435 26,100 900 Climbing Cleveland Center
Mon 05:38:23 PM 42.1822 -78.0500 291° West 378 435 27,000 950 Climbing Cleveland Center
Mon 05:39:23 PM 42.2144 -78.1861 288° West 378 435 28,000 950 Climbing Cleveland Center
Mon 05:40:23 PM 42.2506 -78.3250 289° West 383 441 28,900 950 Climbing Cleveland Center
Mon 05:41:23 PM 42.2886 -78.4639 290° West 383 441 29,900 950 Climbing Cleveland Center
Mon 05:42:23 PM 42.3222 -78.6033 288° West 383 441 30,800 900 Climbing Cleveland Center
Mon 05:43:23 PM 42.3581 -78.7428 289° West 388 447 31,700 950 Climbing Cleveland Center
Mon 05:44:23 PM 42.3956 -78.8822 290° West 393 452 32,700 950 Climbing Cleveland Center
Mon 05:45:23 PM 42.4308 -79.0247 289° West 398 458 33,600 650 Climbing Cleveland Center
Mon 05:46:23 PM 42.4517 -79.1733 281° West 403 464 34,000 450 Climbing Cleveland Center
Mon 05:47:23 PM 42.4053 -79.3206 247° West 394 453 34,500 700 Climbing Cleveland Center
Mon 05:48:23 PM 42.3569 -79.4622 245° Southwest 406 467 35,400 750 Climbing Cleveland Center
Mon 05:49:23 PM 42.3081 -79.6033 245° Southwest 411 473 36,000 300 Climbing Cleveland Center
Mon 05:50:23 PM 42.2531 -79.7500 243° Southwest 425 489 36,000  Level Cleveland Center
Mon 05:51:23 PM 42.1997 -79.8964 244° Southwest 430 495 36,000  Level Cleveland Center
Mon 05:52:23 PM 42.1464 -80.0539 245° Southwest 452 520 36,000  Level Cleveland Center
Mon 05:53:23 PM 42.0906 -80.2028 243° Southwest 447 514 36,000  Level Cleveland Center
Mon 05:54:23 PM 42.0369 -80.3539 245° Southwest 447 514 36,000  Level Cleveland Center
Mon 05:55:23 PM 41.9808 -80.5050 243° Southwest 447 514 36,000  Level Cleveland Center
Mon 05:56:23 PM 41.9203 -80.6697 244° Southwest 447 514 36,000  Level Cleveland Center
Mon 05:57:23 PM 41.8639 -80.8231 244° Southwest 447 514 36,000  Level Cleveland Center
Mon 05:58:23 PM 41.8092 -80.9703 244° Southwest 447 514 36,000  Level Cleveland Center
Mon 05:59:23 PM 41.7544 -81.1231 244° Southwest 447 514 36,000  Level Cleveland Center
Mon 06:00:23 PM 41.6972 -81.2700 242° Southwest 447 514 36,000  Level Cleveland Center
Mon 06:01:23 PM 41.6422 -81.4222 244° Southwest 447 514 36,000  Level Cleveland Center
Mon 06:02:23 PM 41.5847 -81.5742 243° Southwest 447 514 36,000  Level Cleveland Center
Mon 06:03:23 PM 41.5269 -81.7258 243° Southwest 447 514 36,000  Level Cleveland Center
Mon 06:04:23 PM 41.4919 -81.8889 254° West 458 527 36,000  Level Cleveland Center
Mon 06:05:23 PM 41.4772 -82.0547 263° West 458 527 36,000  Level Cleveland Center
Mon 06:06:23 PM 41.4647 -82.2208 264° West 458 527 36,000  Level Cleveland Center
Mon 06:07:23 PM 41.4494 -82.3922 263° West 463 533 36,000  Level Cleveland Center
Mon 06:08:23 PM 41.4364 -82.5581 264° West 463 533 36,000  Level Cleveland Center
Mon 06:09:23 PM 41.4208 -82.7264 263° West 463 533 36,000  Level Cleveland Center
Mon 06:10:23 PM 41.4050 -82.8919 263° West 463 533 36,000  Level Cleveland Center
Mon 06:11:23 PM 41.3889 -83.0631 263° West 463 533 36,000  Level Cleveland Center
Mon 06:12:23 PM 41.3731 -83.2119 262° West 457 526 36,000  Level Cleveland Center
Mon 06:13:23 PM 41.3567 -83.3800 263° West 464 534 36,000  Level Cleveland Center
Mon 06:14:23 PM 41.3439 -83.5511 264° West 464 534 36,000  Level Cleveland Center
Mon 06:15:23 PM 41.3394 -83.7194 268° West 464 534 36,000  Level Cleveland Center
Mon 06:16:23 PM 41.3467 -83.9053 273° West 459 528 36,000  Level Cleveland Center
Mon 06:17:22 PM 41.3517 -84.0428 273° West 461 531 36,000  Level Chicago Center
Mon 06:18:24 PM 41.3581 -84.2464 272° West 459 528 36,000  Level Chicago Center
Mon 06:19:26 PM 41.3650 -84.4167 273° West 461 531 36,000 -339 Level Chicago Center
Mon 06:20:28 PM 41.3625 -84.5894 269° West 466 536 35,300 -823 Descending Chicago Center
Mon 06:21:30 PM 41.3497 -84.7592 264° West 462 532 34,300 -624 Descending Chicago Center
Mon 06:22:33 PM 41.3394 -84.9275 265° West 459 528 34,000 -144 Descending Chicago Center
Mon 06:23:35 PM 41.3317 -85.0944 267° West 452 520 34,000 -484 Level Chicago Center
Mon 06:24:37 PM 41.3231 -85.2658 266° West 457 526 33,000 -1,210 Descending Chicago Center
Mon 06:25:39 PM 41.3117 -85.4786 266° West 469 540 31,500 -968 Descending Chicago Center
Mon 06:26:41 PM 41.3039 -85.6539 267° West 471 542 31,000 -435 Descending Chicago Center
Mon 06:27:43 PM 41.2939 -85.8233 266° West 461 531 30,600 -919 Descending Chicago Center
Mon 06:28:45 PM 41.2850 -85.9978 266° West 468 539 29,100 -1,452 Descending Chicago Center
Mon 06:29:47 PM 41.3153 -86.1683 283° West 474 545 27,600 -1,500 Descending Chicago Center
Mon 06:30:49 PM 41.3581 -86.3353 289° West 475 547 26,000 -1,548 Descending Chicago Center
Mon 06:31:51 PM 41.3986 -86.4983 288° West 469 540 24,400 -1,984 Descending Chicago Center
Mon 06:32:53 PM 41.4458 -86.6894 288° West 455 524 21,900 -2,640 Descending Chicago Center
Mon 06:33:56 PM 41.4836 -86.8400 289° West 431 496 18,900 -2,688 Descending Chicago Center
Mon 06:34:58 PM 41.5172 -86.9792 288° West 409 471 16,300 -2,661 Descending Chicago Center
Mon 06:36:00 PM 41.5508 -87.1169 288° West 398 458 13,400 -2,081 Descending Chicago Center
Mon 06:37:02 PM 41.5844 -87.2431 290° West 375 432 12,000 -1,161 Descending Chicago Center
Mon 06:38:04 PM 41.6611 -87.3719 309° West 370 426 11,000 -919 Descending Chicago Center
Mon 06:39:06 PM 41.7222 -87.4722 309° West 357 411 10,100 -968 Descending Chicago Center
Mon 06:40:08 PM 41.7731 -87.5542 310° West 295 339 9,000 -1,016 Descending Chicago Center
Mon 06:41:10 PM 41.8225 -87.6356 309° West 286 329 8,000 -677 Descending Chicago Center
Mon 06:42:12 PM 41.8247 -87.7461 272° West 246 283 7,600 -484 Descending Chicago Center
Mon 06:43:14 PM 41.8247 -87.8311 270° West 233 268 7,000 -339 Descending Chicago Center
Mon 06:44:16 PM 41.8236 -87.9161 269° West 232 267 6,900 -480 Descending Chicago Center
Mon 06:45:19 PM 41.7853 -87.9567 218° Southwest 185 213 6,000 -912 Descending Chicago Center
Mon 06:46:21 PM 41.7489 -88.0003 222° Southwest 178 205 5,000 -726 Descending Chicago Center
Mon 06:47:23 PM 41.7600 -88.0672 283° West 193 222 4,500 -726 Descending Chicago Center
Mon 06:48:25 PM 41.8036 -88.0875 341° North 201 231 3,500 -726 Descending Chicago Center
Mon 06:49:27 PM 41.8369 -88.0381 48° Northeast 190 219 3,000 -484 Descending Chicago Center

Login

Don't have an account? Register now (free) for customized features, flight alerts, and more!